Time;durP1;ratioP1;P1;durP2;ratioP2;P2;SDS_P1;SDS_P2;PMS_P1;PMS_P2;Temp;Humidity;BMP_temperature;BMP_pressure;BME280_temperature;BME280_humidity;BME280_pressure;Samples;Min_cycle;Max_cycle;Signal;HPM_P1;HPM_P2
2023/05/10 00:01:16;;;;;;;6.63;3.13;;;17.30;92.10;;;;;;5015399;28;20440;-75
2023/05/10 00:03:43;;;;;;;3.80;3.23;;;17.30;91.60;;;;;;5031079;28;20468;-76
2023/05/10 00:06:10;;;;;;;6.40;3.33;;;17.30;91.40;;;;;;5029738;28;20438;-76
2023/05/10 00:08:37;;;;;;;9.17;3.10;;;17.30;90.90;;;;;;5022473;28;20472;-77
2023/05/10 00:11:04;;;;;;;5.57;4.27;;;17.30;91.30;;;;;;5028493;28;20953;-75
2023/05/10 00:13:32;;;;;;;8.70;4.37;;;17.20;91.10;;;;;;5027086;28;20505;-76
2023/05/10 00:15:59;;;;;;;9.30;4.47;;;17.30;90.70;;;;;;5013934;28;20527;-75
2023/05/10 00:18:27;;;;;;;7.70;3.47;;;17.30;90.60;;;;;;5023730;28;20558;-75
2023/05/10 00:20:54;;;;;;;6.53;3.80;;;17.30;90.50;;;;;;5012660;28;20467;-77
2023/05/10 00:23:21;;;;;;;6.97;4.93;;;17.30;90.20;;;;;;5020629;28;20446;-76
2023/05/10 00:25:47;;;;;;;5.87;4.07;;;17.20;89.90;;;;;;5022693;28;20522;-76
2023/05/10 00:28:14;;;;;;;9.70;4.40;;;17.20;90.20;;;;;;5024820;28;20865;-75
2023/05/10 00:30:41;;;;;;;9.70;4.80;;;17.30;89.60;;;;;;5030291;28;20558;-76
2023/05/10 00:33:08;;;;;;;5.53;3.80;;;17.20;89.40;;;;;;5014778;28;20441;-76
2023/05/10 00:35:37;;;;;;;8.13;4.30;;;17.20;89.10;;;;;;5024997;28;20439;-75
2023/05/10 00:38:04;;;;;;;8.87;4.97;;;17.20;89.20;;;;;;5013104;28;20490;-74
2023/05/10 00:40:31;;;;;;;6.80;3.53;;;17.10;89.30;;;;;;5018012;28;20555;-73
2023/05/10 00:42:59;;;;;;;5.70;3.40;;;17.20;89.10;;;;;;5014380;28;20507;-75
2023/05/10 00:45:26;;;;;;;6.50;3.30;;;17.20;88.40;;;;;;5016338;28;20483;-76
2023/05/10 00:47:54;;;;;;;4.50;3.17;;;17.20;88.50;;;;;;5017447;28;20430;-76
2023/05/10 00:50:22;;;;;;;3.20;2.90;;;17.10;88.40;;;;;;5015618;28;20474;-75
2023/05/10 00:52:51;;;;;;;3.90;3.50;;;17.10;88.70;;;;;;5021950;28;20918;-76
2023/05/10 00:55:18;;;;;;;3.27;2.97;;;17.00;88.80;;;;;;5027156;28;20435;-74
2023/05/10 00:57:45;;;;;;;3.53;3.23;;;17.00;89.30;;;;;;5022327;28;20462;-75
2023/05/10 01:00:17;;;;;;;10.20;3.63;;;16.90;89.50;;;;;;5022850;28;20593;-75
2023/05/10 01:02:44;;;;;;;4.67;3.50;;;16.90;89.50;;;;;;5023888;28;20439;-75
2023/05/10 01:05:12;;;;;;;3.77;3.10;;;16.90;89.80;;;;;;5019556;28;20533;-75
2023/05/10 01:07:39;;;;;;;6.30;3.23;;;16.90;89.40;;;;;;5024096;28;20442;-76
2023/05/10 01:10:09;;;;;;;4.93;3.70;;;16.90;89.60;;;;;;5022952;28;20463;-76
2023/05/10 01:12:39;;;;;;;3.77;3.30;;;16.80;89.50;;;;;;5017870;28;20446;-74
2023/05/10 01:15:07;;;;;;;5.27;4.10;;;16.70;89.90;;;;;;5025750;28;20449;-75
2023/05/10 01:17:35;;;;;;;7.27;5.20;;;16.70;90.10;;;;;;5032784;28;20473;-75
2023/05/10 01:20:02;;;;;;;8.30;5.10;;;16.70;89.70;;;;;;5010642;28;20475;-74
2023/05/10 01:22:51;;;;;;;8.33;5.43;;;16.70;89.90;;;;;;5027402;28;20474;-77
2023/05/10 01:25:38;;;;;;;11.00;5.10;;;16.60;90.00;;;;;;5022188;28;20526;-75
2023/05/10 01:28:27;;;;;;;5.83;4.30;;;16.60;90.00;;;;;;5030546;28;20515;-76
2023/05/10 01:31:13;;;;;;;6.20;4.70;;;16.50;89.90;;;;;;5019490;28;20452;-75
2023/05/10 01:33:46;;;;;;;6.67;4.23;;;16.60;90.00;;;;;;5029950;28;20981;-77
2023/05/10 01:36:25;;;;;;;8.47;5.07;;;16.50;90.00;;;;;;4993583;28;20450;-75
2023/05/10 01:38:57;;;;;;;5.87;4.30;;;16.50;90.30;;;;;;4999481;28;20521;-76
2023/05/10 01:41:35;;;;;;;4.40;3.60;;;16.50;90.40;;;;;;5024378;28;20530;-75
2023/05/10 01:44:10;;;;;;;5.17;3.67;;;16.40;90.40;;;;;;5015485;28;20546;-75
2023/05/10 01:46:38;;;;;;;7.97;5.10;;;16.40;90.40;;;;;;5014463;28;20517;-77
2023/05/10 01:49:10;;;;;;;6.60;3.95;;;16.40;90.50;;;;;;5021075;28;20527;-76
2023/05/10 01:51:43;;;;;;;7.83;3.83;;;16.40;90.50;;;;;;5023911;28;20202;-75
2023/05/10 01:54:13;;;;;;;5.63;4.00;;;16.40;90.50;;;;;;5024402;28;20442;-74
2023/05/10 01:56:41;;;;;;;6.93;4.03;;;16.40;90.60;;;;;;5030233;28;20456;-75
2023/05/10 01:59:14;;;;;;;5.70;3.70;;;16.40;91.00;;;;;;5022282;28;20495;-75
2023/05/10 02:01:42;;;;;;;4.43;3.93;;;16.40;90.60;;;;;;5020566;28;20443;-75
2023/05/10 02:04:12;;;;;;;5.40;3.80;;;16.40;90.90;;;;;;5023332;28;20552;-75
2023/05/10 02:06:41;;;;;;;5.60;4.20;;;16.30;90.80;;;;;;5023346;28;20465;-76
2023/05/10 02:09:09;;;;;;;6.70;4.93;;;16.40;90.70;;;;;;5016604;28;20840;-74
2023/05/10 02:11:38;;;;;;;7.27;3.90;;;16.30;90.80;;;;;;5017238;28;20447;-75
2023/05/10 02:14:08;;;;;;;4.20;3.60;;;16.20;90.90;;;;;;5012556;28;20804;-76
2023/05/10 02:16:37;;;;;;;5.30;3.70;;;16.20;91.10;;;;;;5018796;28;20438;-76
2023/05/10 02:19:04;;;;;;;7.43;3.97;;;16.20;91.20;;;;;;5023949;28;20496;-76
2023/05/10 02:21:34;;;;;;;5.22;4.25;;;16.20;91.30;;;;;;5020196;28;20646;-75
2023/05/10 02:24:04;;;;;;;7.55;3.47;;;16.10;91.20;;;;;;5015974;28;20211;-76
2023/05/10 02:26:34;;;;;;;6.97;3.80;;;16.10;91.50;;;;;;5015065;28;20687;-73
2023/05/10 02:29:04;;;;;;;6.10;4.00;;;16.10;91.80;;;;;;5008948;28;20239;-77
2023/05/10 02:31:32;;;;;;;7.55;4.25;;;16.00;91.80;;;;;;5018641;28;20195;-75
2023/05/10 02:34:00;;;;;;;12.97;3.67;;;16.00;92.10;;;;;;5015023;28;20210;-75
2023/05/10 02:36:29;;;;;;;5.40;3.43;;;16.00;92.20;;;;;;5018383;28;20449;-75
2023/05/10 02:38:58;;;;;;;6.50;3.60;;;16.00;92.10;;;;;;5018670;28;20568;-76
2023/05/10 02:41:26;;;;;;;5.80;3.60;;;15.80;92.50;;;;;;5024400;28;20202;-76
2023/05/10 02:43:58;;;;;;;8.57;4.35;;;15.80;92.60;;;;;;5015325;28;20452;-76
2023/05/10 02:46:25;;;;;;;10.13;3.70;;;15.80;92.70;;;;;;5014884;28;20230;-75
2023/05/10 02:48:52;;;;;;;4.97;3.85;;;15.80;92.40;;;;;;5016440;28;20219;-75
2023/05/10 02:51:25;;;;;;;4.77;3.60;;;15.80;92.50;;;;;;5020629;28;20195;-75
2023/05/10 02:53:54;;;;;;;5.03;3.60;;;15.80;92.40;;;;;;5015068;28;20445;-75
2023/05/10 02:56:29;;;;;;;4.80;3.78;;;15.80;92.60;;;;;;5022786;28;20642;-75
2023/05/10 02:58:56;;;;;;;4.22;3.53;;;15.70;93.10;;;;;;5017247;28;20299;-75
2023/05/10 03:01:23;;;;;;;5.85;3.90;;;15.70;93.70;;;;;;5022451;28;20203;-75
2023/05/10 03:03:50;;;;;;;4.90;4.00;;;15.70;94.40;;;;;;5025052;28;20222;-76
2023/05/10 03:06:18;;;;;;;5.50;4.17;;;15.50;95.20;;;;;;5019863;28;20846;-75
2023/05/10 03:08:46;;;;;;;6.40;4.55;;;15.40;95.90;;;;;;5022774;28;20485;-75
2023/05/10 03:11:33;;;;;;;4.45;3.97;;;15.40;96.20;;;;;;5011943;28;20201;-74
2023/05/10 03:14:11;;;;;;;7.03;4.07;;;15.40;96.30;;;;;;5019664;28;20203;-76
2023/05/10 03:16:45;;;;;;;4.82;4.20;;;15.40;96.30;;;;;;5014373;28;20507;-75
2023/05/10 03:19:18;;;;;;;4.68;4.15;;;15.30;96.70;;;;;;5003445;28;20256;-77
2023/05/10 03:21:51;;;;;;;5.00;4.50;;;15.40;96.20;;;;;;5018568;28;20214;-74
2023/05/10 03:24:21;;;;;;;5.03;4.50;;;15.30;96.10;;;;;;5030649;28;20423;-75
2023/05/10 03:27:12;;;;;;;7.28;4.13;;;15.40;96.40;;;;;;5041851;28;20199;-75
2023/05/10 03:29:40;;;;;;;3.80;3.50;;;15.30;95.90;;;;;;5022327;28;20643;-76
2023/05/10 03:32:08;;;;;;;5.40;3.95;;;15.30;96.20;;;;;;5016873;28;20280;-76
2023/05/10 03:34:36;;;;;;;5.65;3.83;;;15.30;96.30;;;;;;5027317;28;20283;-76
2023/05/10 03:37:02;;;;;;;5.70;5.07;;;15.30;96.50;;;;;;5021965;28;20647;-77
2023/05/10 03:39:29;;;;;;;5.82;4.70;;;15.40;97.00;;;;;;5020384;28;20312;-77
2023/05/10 03:41:56;;;;;;;7.82;4.90;;;15.40;97.70;;;;;;5020482;28;20255;-76
2023/05/10 03:44:24;;;;;;;7.53;6.53;;;15.40;97.20;;;;;;5013767;28;20273;-75
2023/05/10 03:46:51;;;;;;;8.52;4.78;;;15.40;98.00;;;;;;5027879;28;20298;-74
2023/05/10 03:49:19;;;;;;;10.20;4.63;;;15.40;98.30;;;;;;5024022;28;20298;-75
2023/05/10 03:51:46;;;;;;;5.97;4.80;;;15.40;98.90;;;;;;5024333;28;20292;-77
2023/05/10 03:54:13;;;;;;;5.97;5.38;;;15.40;98.40;;;;;;5028974;28;20195;-76
2023/05/10 03:56:40;;;;;;;4.97;4.47;;;15.40;98.50;;;;;;5011493;28;20270;-76
2023/05/10 03:59:08;;;;;;;8.57;4.65;;;15.40;97.90;;;;;;5025001;28;20224;-76
2023/05/10 04:01:36;;;;;;;8.93;4.30;;;15.30;97.80;;;;;;5028110;28;20194;-77
2023/05/10 04:04:03;;;;;;;9.10;5.20;;;15.30;98.60;;;;;;5023073;28;20277;-75
2023/05/10 04:06:31;;;;;;;6.72;4.75;;;15.10;99.30;;;;;;5028550;28;20201;-75
2023/05/10 04:08:59;;;;;;;5.78;5.18;;;15.10;99.20;;;;;;5023624;28;20213;-77
2023/05/10 04:11:27;;;;;;;9.27;6.38;;;15.10;99.90;;;;;;5012790;28;20202;-76
2023/05/10 04:13:53;;;;;;;5.07;4.18;;;15.00;99.90;;;;;;5023557;28;20282;-75
2023/05/10 04:16:21;;;;;;;5.20;4.25;;;14.90;99.90;;;;;;5021002;28;20248;-73
2023/05/10 04:18:50;;;;;;;7.05;4.60;;;14.80;99.90;;;;;;5014684;28;20301;-77
2023/05/10 04:21:17;;;;;;;6.00;4.95;;;14.80;99.90;;;;;;5024906;28;20205;-77
2023/05/10 04:23:44;;;;;;;6.53;5.75;;;14.80;99.90;;;;;;5023167;28;20215;-77
2023/05/10 04:26:11;;;;;;;5.90;4.65;;;14.70;99.90;;;;;;5016692;28;20247;-74
2023/05/10 04:28:38;;;;;;;7.30;4.85;;;14.60;99.90;;;;;;5023135;28;20233;-76
2023/05/10 04:31:06;;;;;;;10.60;6.35;;;14.70;99.90;;;;;;5017770;28;20193;-76
2023/05/10 04:33:33;;;;;;;5.82;5.25;;;14.70;99.90;;;;;;5017014;28;20614;-74
2023/05/10 04:36:02;;;;;;;6.90;6.30;;;14.70;99.90;;;;;;5008414;28;20197;-76
2023/05/10 04:38:31;;;;;;;6.20;5.53;;;14.80;99.90;;;;;;5023037;28;20643;-75
2023/05/10 04:41:06;;;;;;;6.03;5.53;;;14.70;99.90;;;;;;5023008;28;20213;-77
2023/05/10 04:43:32;;;;;;;7.00;6.18;;;14.70;99.90;;;;;;5015045;28;20204;-75
2023/05/10 04:45:59;;;;;;;11.35;5.60;;;14.70;99.90;;;;;;5006611;28;20205;-75
2023/05/10 04:48:26;;;;;;;6.63;5.75;;;14.60;99.90;;;;;;5013571;28;20206;-77
2023/05/10 04:50:53;;;;;;;9.40;5.82;;;14.40;99.90;;;;;;5017626;28;20252;-77
2023/05/10 04:53:21;;;;;;;9.70;6.75;;;14.30;99.90;;;;;;5020790;28;20197;-76
2023/05/10 04:55:49;;;;;;;9.55;7.18;;;14.10;99.90;;;;;;5018540;28;20256;-73
2023/05/10 04:58:16;;;;;;;13.60;9.80;;;14.10;99.90;;;;;;5019978;28;20251;-76
2023/05/10 05:00:43;;;;;;;10.63;7.13;;;14.10;99.90;;;;;;5019926;28;20221;-76
2023/05/10 05:03:10;;;;;;;9.18;7.53;;;14.20;99.90;;;;;;5015788;28;20193;-76
2023/05/10 05:05:38;;;;;;;7.72;6.78;;;14.30;99.90;;;;;;5017891;28;20220;-76
2023/05/10 05:08:05;;;;;;;8.43;7.63;;;14.30;99.90;;;;;;5032959;28;20275;-77
2023/05/10 05:10:33;;;;;;;7.50;6.68;;;14.20;99.90;;;;;;5024930;28;20220;-77
2023/05/10 05:13:00;;;;;;;8.80;7.55;;;14.10;99.90;;;;;;5017149;28;20288;-76
2023/05/10 05:15:27;;;;;;;7.95;7.15;;;14.10;99.90;;;;;;5012275;28;20206;-76
2023/05/10 05:17:54;;;;;;;10.00;7.72;;;13.90;99.90;;;;;;5035295;28;20235;-76
2023/05/10 05:20:28;;;;;;;8.75;7.70;;;13.90;99.90;;;;;;5016550;28;20687;-76
2023/05/10 05:22:55;;;;;;;7.75;7.00;;;13.90;99.90;;;;;;5019125;28;20235;-73
2023/05/10 05:25:22;;;;;;;8.50;6.38;;;13.90;99.90;;;;;;5013979;28;20628;-74
2023/05/10 05:27:51;;;;;;;9.35;8.55;;;13.80;99.90;;;;;;5014996;28;20279;-74
2023/05/10 05:30:18;;;;;;;10.18;8.15;;;13.80;99.90;;;;;;5006781;28;20209;-76
2023/05/10 05:32:46;;;;;;;9.65;7.53;;;13.90;99.90;;;;;;5001495;28;20593;-74
2023/05/10 05:35:14;;;;;;;9.93;7.90;;;14.00;99.90;;;;;;5008317;28;20200;-76
2023/05/10 05:37:40;;;;;;;10.95;8.07;;;14.00;99.90;;;;;;5007337;28;20286;-72
2023/05/10 05:40:09;;;;;;;8.10;7.30;;;14.00;99.90;;;;;;5016633;28;20308;-73
2023/05/10 05:42:36;;;;;;;9.15;8.23;;;13.90;99.90;;;;;;5011123;28;20291;-73
2023/05/10 05:45:05;;;;;;;10.40;9.30;;;13.80;99.90;;;;;;5015377;28;20209;-74
2023/05/10 05:47:32;;;;;;;8.10;7.28;;;13.80;99.90;;;;;;5013857;28;20196;-74
2023/05/10 05:49:59;;;;;;;11.82;8.75;;;13.80;99.90;;;;;;5016276;28;20730;-75
2023/05/10 05:52:26;;;;;;;7.55;6.85;;;13.80;99.90;;;;;;5018351;28;20607;-73
2023/05/10 05:54:53;;;;;;;8.77;7.88;;;13.80;99.90;;;;;;5021670;28;20284;-72
2023/05/10 05:57:19;;;;;;;9.25;7.45;;;13.80;99.90;;;;;;5021631;28;20205;-74
2023/05/10 05:59:46;;;;;;;10.02;9.02;;;13.70;99.90;;;;;;5018288;28;20328;-74
2023/05/10 06:02:14;;;;;;;10.38;8.85;;;13.70;99.90;;;;;;5024229;28;20203;-74
2023/05/10 06:04:41;;;;;;;12.57;9.10;;;13.60;99.90;;;;;;5015497;28;20303;-72
2023/05/10 06:07:08;;;;;;;10.15;9.15;;;13.70;99.90;;;;;;5008642;28;20197;-74
2023/05/10 06:09:35;;;;;;;10.77;9.77;;;13.70;99.90;;;;;;5021667;28;20267;-72
2023/05/10 06:12:02;;;;;;;12.18;9.43;;;13.60;99.90;;;;;;5026875;28;20204;-73
2023/05/10 06:14:29;;;;;;;11.15;10.05;;;13.50;99.90;;;;;;5018477;28;20279;-72
2023/05/10 06:16:56;;;;;;;13.90;9.90;;;13.50;99.90;;;;;;5023525;28;20224;-73
2023/05/10 06:19:26;;;;;;;12.63;10.45;;;13.40;99.90;;;;;;5012739;28;20304;-72
2023/05/10 06:21:52;;;;;;;16.38;10.93;;;13.40;99.90;;;;;;5025129;28;20335;-72
2023/05/10 06:24:19;;;;;;;16.23;11.00;;;13.40;99.90;;;;;;5019508;28;20194;-76
2023/05/10 06:26:46;;;;;;;12.68;10.60;;;13.40;99.90;;;;;;5009472;28;20276;-73
2023/05/10 06:29:15;;;;;;;11.98;9.43;;;13.30;99.90;;;;;;5022554;28;20216;-74
2023/05/10 06:31:41;;;;;;;11.98;10.77;;;13.30;99.90;;;;;;5020885;28;20209;-71
2023/05/10 06:34:09;;;;;;;23.48;13.18;;;13.40;99.90;;;;;;5025552;28;20245;-73
2023/05/10 06:36:37;;;;;;;15.98;11.45;;;13.30;99.90;;;;;;5021823;28;20197;-73
2023/05/10 06:39:04;;;;;;;14.88;12.00;;;13.30;99.90;;;;;;5014202;28;20306;-74
2023/05/10 06:41:31;;;;;;;13.68;12.13;;;13.30;99.90;;;;;;5019973;28;20227;-74
2023/05/10 06:43:58;;;;;;;13.45;12.05;;;13.30;99.90;;;;;;5019811;28;20551;-72
2023/05/10 06:46:24;;;;;;;15.82;12.85;;;13.30;99.90;;;;;;5021203;28;20622;-72
2023/05/10 06:48:51;;;;;;;16.02;13.90;;;13.40;99.90;;;;;;5022963;28;20228;-73
2023/05/10 06:51:21;;;;;;;15.82;13.30;;;13.40;99.90;;;;;;5018804;28;20243;-74
2023/05/10 06:53:49;;;;;;;13.38;12.07;;;13.40;99.90;;;;;;5014716;28;20203;-73
2023/05/10 06:56:16;;;;;;;13.00;10.68;;;13.50;99.90;;;;;;5021940;28;20256;-71
2023/05/10 06:58:42;;;;;;;15.95;13.00;;;13.60;99.90;;;;;;5010834;28;20285;-73
2023/05/10 07:01:09;;;;;;;13.15;11.60;;;13.80;99.90;;;;;;5015802;28;20232;-73
2023/05/10 07:03:36;;;;;;;13.30;11.15;;;14.00;99.90;;;;;;5023523;28;20642;-72
2023/05/10 07:06:04;;;;;;;17.98;14.25;;;14.10;99.90;;;;;;5016912;28;20221;-73
2023/05/10 07:08:31;;;;;;;13.18;10.20;;;14.20;99.90;;;;;;5037750;28;20188;-71
2023/05/10 07:11:04;;;;;;;13.88;12.48;;;14.30;99.90;;;;;;5035390;28;20235;-74
2023/05/10 07:13:31;;;;;;;15.55;12.90;;;14.30;99.90;;;;;;5018075;28;20229;-74
2023/05/10 07:15:59;;;;;;;17.77;12.77;;;14.40;99.90;;;;;;5016231;28;20209;-73
2023/05/10 07:18:26;;;;;;;12.95;11.70;;;14.50;99.90;;;;;;5026972;28;20199;-74
2023/05/10 07:20:53;;;;;;;14.40;12.90;;;14.60;99.90;;;;;;5026107;28;20683;-74
2023/05/10 07:23:20;;;;;;;16.98;13.82;;;14.70;99.90;;;;;;5021304;28;20532;-77
2023/05/10 07:25:47;;;;;;;18.70;13.27;;;14.60;99.90;;;;;;5021177;28;20208;-73
2023/05/10 07:28:16;;;;;;;18.48;13.52;;;14.60;99.90;;;;;;5023691;28;20204;-73
2023/05/10 07:30:44;;;;;;;15.52;13.02;;;14.60;99.90;;;;;;5024814;28;20219;-73
2023/05/10 07:33:13;;;;;;;13.20;11.90;;;14.70;99.90;;;;;;5016369;28;20222;-73
2023/05/10 07:35:40;;;;;;;14.13;11.45;;;14.80;99.90;;;;;;5016849;28;20293;-74
2023/05/10 07:38:07;;;;;;;12.55;11.27;;;15.00;99.90;;;;;;5023943;28;20225;-74
2023/05/10 07:40:34;;;;;;;11.48;9.55;;;15.20;99.90;;;;;;5016261;28;20565;-74
2023/05/10 07:43:02;;;;;;;14.00;12.70;;;15.40;99.90;;;;;;5033311;28;20279;-74
2023/05/10 07:45:30;;;;;;;15.30;13.63;;;15.40;99.90;;;;;;5023051;28;20202;-73
2023/05/10 07:47:57;;;;;;;15.50;14.10;;;15.30;99.90;;;;;;5022976;28;20252;-73
2023/05/10 07:50:24;;;;;;;16.83;14.10;;;15.20;99.90;;;;;;5020902;28;20222;-73
2023/05/10 07:52:51;;;;;;;14.95;12.73;;;15.00;99.90;;;;;;5009878;28;20225;-73
2023/05/10 07:55:20;;;;;;;17.52;14.60;;;14.90;99.90;;;;;;5020971;28;20201;-74
2023/05/10 07:57:47;;;;;;;16.73;15.00;;;14.90;99.90;;;;;;5015454;28;20249;-75
2023/05/10 08:00:19;;;;;;;15.25;11.57;;;14.90;99.90;;;;;;5021855;28;20312;-73
2023/05/10 08:02:48;;;;;;;14.90;13.40;;;14.90;99.90;;;;;;5025973;28;20549;-74
2023/05/10 08:05:15;;;;;;;16.38;12.75;;;15.10;99.90;;;;;;5025945;28;20281;-74
2023/05/10 08:07:42;;;;;;;14.20;12.80;;;15.30;99.90;;;;;;5025317;28;20288;-74
2023/05/10 08:10:11;;;;;;;10.93;8.80;;;15.50;99.90;;;;;;5018385;28;20249;-74
2023/05/10 08:12:39;;;;;;;8.07;6.45;;;15.70;99.90;;;;;;5012441;28;20199;-75
2023/05/10 08:15:07;;;;;;;6.10;5.50;;;15.80;99.90;;;;;;5024200;28;20190;-73
2023/05/10 08:17:34;;;;;;;5.68;5.15;;;15.80;99.90;;;;;;5021456;28;20454;-74
2023/05/10 08:20:03;;;;;;;5.97;5.15;;;15.90;99.90;;;;;;5016370;28;20576;-75
2023/05/10 08:22:30;;;;;;;6.13;4.85;;;15.90;99.90;;;;;;5019228;28;20662;-74
2023/05/10 08:24:58;;;;;;;6.90;6.20;;;16.00;99.90;;;;;;5021388;28;20291;-74
2023/05/10 08:27:24;;;;;;;6.80;6.10;;;16.10;99.90;;;;;;5013717;28;20870;-74
2023/05/10 08:29:52;;;;;;;6.33;5.03;;;16.20;99.90;;;;;;5015257;28;20467;-75
2023/05/10 08:32:19;;;;;;;5.50;5.00;;;16.30;99.90;;;;;;5009548;28;20531;-74
2023/05/10 08:34:47;;;;;;;5.57;5.00;;;16.50;99.90;;;;;;5018802;28;20473;-74
2023/05/10 08:37:16;;;;;;;5.57;4.97;;;16.40;99.90;;;;;;5026972;28;20481;-74
2023/05/10 08:39:43;;;;;;;5.77;5.17;;;16.50;99.90;;;;;;5011534;28;20482;-75
2023/05/10 08:42:10;;;;;;;6.73;6.10;;;16.60;99.90;;;;;;5015173;28;20518;-74
2023/05/10 08:44:38;;;;;;;7.20;6.47;;;16.70;99.90;;;;;;5013849;28;20447;-75
2023/05/10 08:47:07;;;;;;;8.87;8.00;;;16.80;99.90;;;;;;5019597;28;20431;-74
2023/05/10 08:49:35;;;;;;;7.10;6.20;;;16.60;99.90;;;;;;5018081;28;20467;-74
2023/05/10 08:52:05;;;;;;;7.30;6.60;;;16.60;99.90;;;;;;5023642;28;20517;-74
2023/05/10 08:54:34;;;;;;;8.10;7.40;;;16.40;99.90;;;;;;5022232;28;20438;-74
2023/05/10 08:57:03;;;;;;;7.63;6.87;;;16.50;99.90;;;;;;5011422;28;20439;-75
2023/05/10 08:59:30;;;;;;;8.20;7.40;;;16.60;99.90;;;;;;5019884;28;20491;-76
2023/05/10 09:02:09;;;;;;;6.90;5.77;;;17.00;99.90;;;;;;5044366;28;20506;-76
2023/05/10 09:04:36;;;;;;;5.33;4.83;;;17.40;99.90;;;;;;5030355;28;20498;-75
2023/05/10 09:07:03;;;;;;;4.63;4.20;;;17.70;99.90;;;;;;5022970;28;20538;-75
2023/05/10 09:09:30;;;;;;;5.73;3.60;;;18.10;99.90;;;;;;5021448;28;20543;-74
2023/05/10 09:12:00;;;;;;;2.80;2.50;;;18.70;99.90;;;;;;5015190;28;20847;-74
2023/05/10 09:14:28;;;;;;;4.33;2.90;;;19.20;99.90;;;;;;5009612;28;20531;-75
2023/05/10 09:16:57;;;;;;;3.00;2.70;;;19.40;99.90;;;;;;5019776;28;20435;-75
2023/05/10 09:19:23;;;;;;;2.70;2.50;;;19.20;99.90;;;;;;5014867;28;20924;-74
2023/05/10 09:21:50;;;;;;;2.40;2.20;;;19.30;99.90;;;;;;5016857;28;20594;-74
2023/05/10 09:24:17;;;;;;;2.10;1.90;;;19.70;99.90;;;;;;5024126;28;20446;-75
2023/05/10 09:26:49;;;;;;;2.87;2.40;;;20.10;99.90;;;;;;5018328;28;20450;-75
2023/05/10 09:29:18;;;;;;;2.87;2.00;;;20.30;99.90;;;;;;5021103;28;20451;-73
2023/05/10 09:31:47;;;;;;;3.57;3.20;;;20.60;99.90;;;;;;5018019;28;20442;-74
2023/05/10 09:34:19;;;;;;;3.63;3.33;;;20.10;99.90;;;;;;5022781;28;20443;-74
2023/05/10 09:36:56;;;;;;;4.73;3.93;;;19.50;99.90;;;;;;5008702;28;20437;-75
2023/05/10 09:39:31;;;;;;;7.67;4.30;;;18.90;99.90;;;;;;5014325;28;20486;-75
2023/05/10 09:41:59;;;;;;;4.93;4.17;;;18.50;99.90;;;;;;5024850;28;20486;-74
2023/05/10 09:44:28;;;;;;;5.40;4.37;;;18.00;99.90;;;;;;5025277;28;20526;-77
2023/05/10 09:46:55;;;;;;;6.17;5.60;;;18.10;99.90;;;;;;5017045;28;20442;-75
2023/05/10 09:49:22;;;;;;;5.60;5.10;;;18.20;99.90;;;;;;5014525;28;20563;-75
2023/05/10 09:52:03;;;;;;;16.63;8.40;;;18.20;99.90;;;;;;5019214;28;20439;-75
2023/05/10 09:54:30;;;;;;;4.70;4.17;;;18.20;99.90;;;;;;5007432;28;20507;-74
2023/05/10 09:56:57;;;;;;;8.93;5.17;;;18.20;99.90;;;;;;5006160;28;20435;-74
2023/05/10 09:59:27;;;;;;;5.93;5.33;;;18.00;99.90;;;;;;5021008;28;20502;-74
2023/05/10 10:01:57;;;;;;;6.43;5.83;;;17.80;99.90;;;;;;5007950;28;20476;-78
2023/05/10 10:04:24;;;;;;;5.33;4.83;;;17.80;99.90;;;;;;5014173;28;20539;-74
2023/05/10 10:07:00;;;;;;;6.30;5.10;;;17.70;99.90;;;;;;5027659;28;20445;-76
2023/05/10 10:09:27;;;;;;;5.00;4.47;;;18.00;99.90;;;;;;5026618;28;20467;-75
2023/05/10 10:11:55;;;;;;;5.07;4.53;;;18.30;99.90;;;;;;5015118;28;20993;-73
2023/05/10 10:14:23;;;;;;;5.53;4.50;;;18.50;99.90;;;;;;5024176;28;20452;-74
2023/05/10 10:16:50;;;;;;;5.10;4.60;;;18.30;99.90;;;;;;5016524;28;20950;-73
2023/05/10 10:19:19;;;;;;;6.40;4.97;;;18.10;99.90;;;;;;5022722;28;20455;-74
2023/05/10 10:21:46;;;;;;;3.80;3.47;;;18.00;99.90;;;;;;5013012;28;20491;-75
2023/05/10 10:24:15;;;;;;;3.10;2.80;;;17.80;99.90;;;;;;5013962;28;20454;-74
2023/05/10 10:26:43;;;;;;;4.20;3.40;;;17.20;99.90;;;;;;5020600;28;20448;-75
2023/05/10 10:29:22;;;;;;;4.10;3.63;;;16.90;99.90;;;;;;5012691;28;20494;-74
2023/05/10 10:31:59;;;;;;;5.80;4.10;;;16.80;99.90;;;;;;5018882;28;20469;-73
2023/05/10 10:34:29;;;;;;;3.83;3.50;;;16.60;99.90;;;;;;4996395;28;20452;-75
2023/05/10 10:36:58;;;;;;;5.20;4.23;;;16.60;99.90;;;;;;5008172;28;20447;-74
2023/05/10 10:39:25;;;;;;;4.70;3.90;;;16.80;99.90;;;;;;5016729;28;20523;-74
2023/05/10 10:41:54;;;;;;;4.50;4.10;;;17.30;99.90;;;;;;5017266;28;20468;-74
2023/05/10 10:44:36;;;;;;;4.93;4.53;;;18.00;99.90;;;;;;5004830;28;20440;-73
2023/05/10 10:47:11;;;;;;;3.70;3.40;;;18.50;99.90;;;;;;4998789;28;20811;-74
2023/05/10 10:49:51;;;;;;;3.93;3.50;;;19.10;99.90;;;;;;5014360;28;20797;-74
2023/05/10 10:52:26;;;;;;;3.90;3.40;;;19.30;99.90;;;;;;4996095;28;20431;-74
2023/05/10 10:54:55;;;;;;;5.73;3.60;;;19.50;99.90;;;;;;5003893;28;20451;-75
2023/05/10 10:57:23;;;;;;;3.97;3.10;;;19.80;99.90;;;;;;5028370;28;20442;-75
2023/05/10 10:59:50;;;;;;;6.50;3.33;;;20.00;99.90;;;;;;5007350;28;20981;-75
2023/05/10 11:02:45;;;;;;;4.70;3.70;;;20.00;99.90;;;;;;5004416;28;20811;-74
2023/05/10 11:05:35;;;;;;;5.80;4.40;;;20.10;99.90;;;;;;5008100;28;20451;-74
2023/05/10 11:08:11;;;;;;;3.83;2.30;;;19.70;99.90;;;;;;4984357;28;20435;-74
2023/05/10 11:10:38;;;;;;;3.47;2.40;;;19.50;99.90;;;;;;5013008;28;20471;-74
2023/05/10 11:13:07;;;;;;;3.43;3.00;;;19.40;99.90;;;;;;5014287;28;20528;-74
2023/05/10 11:15:35;;;;;;;3.60;3.30;;;19.40;99.90;;;;;;5023563;28;20567;-76
2023/05/10 11:18:18;;;;;;;4.50;3.47;;;19.50;99.90;;;;;;5010833;28;20470;-74
2023/05/10 11:20:51;;;;;;;3.03;2.83;;;19.50;99.90;;;;;;5028592;28;20464;-75
2023/05/10 11:23:19;;;;;;;3.93;3.63;;;19.40;99.90;;;;;;5005443;28;20528;-73
2023/05/10 11:25:48;;;;;;;4.53;4.13;;;19.40;99.90;;;;;;5023748;28;20440;-75
2023/05/10 11:28:15;;;;;;;3.73;3.30;;;19.40;99.90;;;;;;5028472;28;20470;-73
2023/05/10 11:30:45;;;;;;;4.70;3.53;;;19.40;99.90;;;;;;5020750;28;20962;-75
2023/05/10 11:33:17;;;;;;;5.90;4.00;;;19.40;99.90;;;;;;5017373;28;20449;-77
2023/05/10 11:35:46;;;;;;;5.30;4.83;;;19.40;99.90;;;;;;5024912;28;20452;-75
2023/05/10 11:38:14;;;;;;;4.50;4.07;;;19.50;99.90;;;;;;5023264;28;20505;-75
2023/05/10 11:40:44;;;;;;;6.33;5.70;;;19.80;99.90;;;;;;5013842;28;21030;-75
2023/05/10 11:43:12;;;;;;;3.37;2.77;;;20.00;99.90;;;;;;5024306;28;21034;-76
2023/05/10 11:45:40;;;;;;;3.93;3.63;;;20.20;99.90;;;;;;5017208;28;20459;-75
2023/05/10 11:48:08;;;;;;;3.30;2.93;;;19.90;99.90;;;;;;5015386;28;20450;-75
2023/05/10 11:50:35;;;;;;;4.20;3.10;;;19.80;99.90;;;;;;5023735;28;20540;-74
2023/05/10 11:53:03;;;;;;;6.80;3.30;;;19.60;99.90;;;;;;5034471;28;20433;-74
2023/05/10 11:55:31;;;;;;;5.90;3.20;;;19.40;99.90;;;;;;5019651;28;20517;-75
2023/05/10 11:58:03;;;;;;;6.37;3.30;;;19.40;99.90;;;;;;5013329;28;20486;-74
2023/05/10 12:00:31;;;;;;;1.60;1.30;;;19.50;99.90;;;;;;5006872;28;20462;-76
2023/05/10 12:02:59;;;;;;;2.07;1.60;;;19.00;99.90;;;;;;5027856;28;20531;-74
2023/05/10 12:05:27;;;;;;;2.80;2.00;;;18.50;99.90;;;;;;5018036;28;20482;-74
2023/05/10 12:08:13;;;;;;;1.40;1.30;;;18.20;99.90;;;;;;5025968;28;20439;-74
2023/05/10 12:10:40;;;;;;;3.50;1.70;;;17.70;99.90;;;;;;5019524;28;20820;-75
2023/05/10 12:13:12;;;;;;;1.77;1.43;;;17.50;99.90;;;;;;5012303;28;20454;-75
2023/05/10 12:15:39;;;;;;;3.20;1.23;;;17.40;99.90;;;;;;5019097;28;20530;-73
2023/05/10 12:18:08;;;;;;;1.83;1.10;;;17.30;99.90;;;;;;5014210;28;20482;-74
2023/05/10 12:20:35;;;;;;;1.60;1.47;;;17.40;99.90;;;;;;5012503;28;20544;-73
2023/05/10 12:23:03;;;;;;;1.60;1.50;;;17.60;99.90;;;;;;5021604;28;20489;-75
2023/05/10 12:25:33;;;;;;;1.83;1.70;;;17.70;99.90;;;;;;5006883;28;20919;-74
2023/05/10 12:28:03;;;;;;;1.40;1.30;;;17.90;99.90;;;;;;5019484;28;20444;-74
2023/05/10 12:30:31;;;;;;;1.47;1.37;;;17.90;99.90;;;;;;5013269;28;20460;-75
2023/05/10 12:33:02;;;;;;;1.40;1.30;;;17.80;99.90;;;;;;5023794;28;20977;-73
2023/05/10 12:35:31;;;;;;;1.20;1.00;;;17.60;99.90;;;;;;5019389;28;20436;-73
2023/05/10 12:37:59;;;;;;;2.47;1.83;;;17.50;99.90;;;;;;5023344;28;20804;-74
2023/05/10 12:40:25;;;;;;;1.47;0.97;;;17.50;99.90;;;;;;5027293;28;20920;-73
2023/05/10 12:42:54;;;;;;;1.37;0.70;;;17.50;99.90;;;;;;5023266;28;20558;-74
2023/05/10 12:45:21;;;;;;;1.33;1.00;;;17.80;99.90;;;;;;5017860;28;20510;-73
2023/05/10 12:47:48;;;;;;;11.03;4.37;;;17.90;99.90;;;;;;5021018;28;20933;-75
2023/05/10 12:50:15;;;;;;;2.77;1.00;;;17.90;99.90;;;;;;5016148;28;20488;-73
2023/05/10 12:52:42;;;;;;;1.47;1.03;;;17.70;99.90;;;;;;5016446;28;20445;-74